createdAt,value
2023-04-19T00:01:41.356Z,100.13
2023-04-19T00:11:44.832Z,94.83
2023-04-19T00:21:49.658Z,97.83
2023-04-19T00:31:53.221Z,98.93
2023-04-19T00:41:58.380Z,104.73
2023-04-19T00:52:01.730Z,100.50
2023-04-19T01:02:07.516Z,98.63
2023-04-19T01:12:10.963Z,101.10
2023-04-19T01:22:23.662Z,98.37
2023-04-19T01:32:27.374Z,101.27
2023-04-19T01:42:34.302Z,101.37
2023-04-19T01:52:37.762Z,102.27
2023-04-19T02:02:43.355Z,103.07
2023-04-19T02:12:47.059Z,103.20
2023-04-19T02:22:51.776Z,101.63
2023-04-19T02:32:55.244Z,99.97
2023-04-19T02:43:00.063Z,100.93
2023-04-19T02:53:03.525Z,100.87
2023-04-19T03:03:09.889Z,99.93
2023-04-19T03:13:14.045Z,123.40
2023-04-19T03:23:18.976Z,104.80
2023-04-19T03:33:24.797Z,99.70
2023-04-19T03:43:31.535Z,100.33
2023-04-19T03:53:36.163Z,98.67
2023-04-19T04:03:41.330Z,95.30
2023-04-19T04:13:46.574Z,98.67
2023-04-19T04:23:56.639Z,98.33
2023-04-19T04:34:22.897Z,96.63
2023-04-19T04:44:34.215Z,95.27
2023-04-19T04:54:37.877Z,97.57
2023-04-19T05:04:46.556Z,95.10
2023-04-19T05:14:50.202Z,100.27
2023-04-19T05:24:55.982Z,98.93
2023-04-19T05:34:59.480Z,96.70
2023-04-19T05:45:06.180Z,92.23
2023-04-19T05:55:10.883Z,92.50
2023-04-19T06:05:20.714Z,91.37
2023-04-19T06:15:26.007Z,92.87
2023-04-19T06:25:31.243Z,96.00
2023-04-19T06:35:34.755Z,92.83
2023-04-19T06:45:39.567Z,89.37
2023-04-19T06:55:43.055Z,93.67
2023-04-19T07:05:47.817Z,92.07
2023-04-19T07:15:51.283Z,92.23
2023-04-19T07:25:56.006Z,97.33
2023-04-19T07:35:59.389Z,94.10
2023-04-19T07:46:12.282Z,95.57
2023-04-19T07:56:16.978Z,87.00
2023-04-19T08:06:22.422Z,85.10
2023-04-19T08:26:36.926Z,82.07
2023-04-19T08:36:51.604Z,85.33
2023-04-19T08:47:01.562Z,85.60
2023-04-19T08:57:05.211Z,99.13
2023-04-19T09:07:10.588Z,91.67
2023-04-19T09:17:18.233Z,87.73
2023-04-19T09:27:29.431Z,85.77
2023-04-19T09:37:57.345Z,83.63
2023-04-19T09:48:05.524Z,84.07
2023-04-19T09:58:09.276Z,87.73
2023-04-19T10:08:15.635Z,90.50
2023-04-19T10:18:19.843Z,84.57
2023-04-19T10:28:25.004Z,90.57
2023-04-19T10:38:40.482Z,106.70
2023-04-19T10:48:55.488Z,92.60
2023-04-19T10:59:22.417Z,87.37
2023-04-19T11:09:29.042Z,90.97
2023-04-19T11:19:32.401Z,84.67
2023-04-19T11:29:37.203Z,92.07
2023-04-19T11:39:48.369Z,90.80
2023-04-19T11:49:53.479Z,90.77
2023-04-19T12:00:11.109Z,85.27
2023-04-19T12:10:19.095Z,88.23
2023-04-19T12:20:32.280Z,102.03
2023-04-19T12:30:37.589Z,89.90
2023-04-19T12:40:41.069Z,88.77
2023-04-19T12:50:45.982Z,90.37
2023-04-19T13:00:50.283Z,92.13
2023-04-19T13:10:55.079Z,92.63
2023-04-19T13:20:58.525Z,92.03
2023-04-19T13:31:03.924Z,95.77
2023-04-19T13:41:07.534Z,92.83
2023-04-19T13:51:12.507Z,95.07
2023-04-19T14:01:18.394Z,86.97
2023-04-19T14:11:23.956Z,89.97
2023-04-19T14:21:28.534Z,89.53
2023-04-19T14:31:34.481Z,96.43
2023-04-19T14:41:37.957Z,92.00
2023-04-19T14:51:43.130Z,90.63
2023-04-19T15:01:46.645Z,97.97
2023-04-19T15:11:51.506Z,92.50
2023-04-19T15:21:54.906Z,93.30
2023-04-19T15:31:59.711Z,97.93
2023-04-19T15:42:03.513Z,93.93
2023-04-19T15:52:09.422Z,94.40
2023-04-19T16:02:13.091Z,92.23
2023-04-19T16:12:17.963Z,102.07
2023-04-19T16:22:21.364Z,103.73
2023-04-19T16:32:26.217Z,94.57
2023-04-19T16:42:29.702Z,97.10
2023-04-19T16:52:36.172Z,95.23
2023-04-19T17:02:39.874Z,98.67
2023-04-19T17:12:45.032Z,96.63
2023-04-19T17:22:49.566Z,97.00
2023-04-19T17:32:54.623Z,91.87
2023-04-19T17:42:58.041Z,103.37
2023-04-19T17:53:02.775Z,101.40
2023-04-19T18:03:07.539Z,109.17
2023-04-19T18:13:12.560Z,107.40
2023-04-19T18:23:16.013Z,105.57
2023-04-19T18:33:20.880Z,114.60
2023-04-19T18:43:25.731Z,108.07
2023-04-19T18:53:31.629Z,116.00
2023-04-19T19:13:42.725Z,116.77
2023-04-19T19:23:46.305Z,113.00
2023-04-19T19:34:04.251Z,118.80
2023-04-19T19:44:14.729Z,116.73
2023-04-19T19:54:19.540Z,118.53
2023-04-19T20:04:23.893Z,117.10
2023-04-19T20:14:29.135Z,115.53
2023-04-19T20:24:32.482Z,113.90
2023-04-19T20:34:37.978Z,114.97
2023-04-19T20:44:41.479Z,111.10
2023-04-19T20:54:46.302Z,112.40
2023-04-19T21:04:49.709Z,117.27
2023-04-19T21:14:54.435Z,114.17
2023-04-19T21:24:57.781Z,116.57
2023-04-19T21:35:03.606Z,117.27
2023-04-19T21:45:09.057Z,120.03
2023-04-19T21:55:13.917Z,121.90
2023-04-19T22:05:18.021Z,120.00
2023-04-19T22:15:23.293Z,124.00
2023-04-19T22:25:26.722Z,123.00
2023-04-19T22:35:31.486Z,118.77
2023-04-19T22:45:34.920Z,120.80
2023-04-19T22:55:39.785Z,124.10
2023-04-19T23:05:43.228Z,127.10
2023-04-19T23:15:49.584Z,126.60
2023-04-19T23:25:52.987Z,122.07
2023-04-19T23:35:57.725Z,118.47
2023-04-19T23:46:01.270Z,120.90
2023-04-19T23:56:06.960Z,120.10
